Time;durP1;ratioP1;P1;durP2;ratioP2;P2;SDS_P1;SDS_P2;PMS_P1;PMS_P2;Temp;Humidity;BMP_temperature;BMP_pressure;BME280_temperature;BME280_humidity;BME280_pressure;Samples;Min_cycle;Max_cycle;Signal;HPM_P1;HPM_P2
2023/04/22 00:00:11;;;;;;;14.78;8.70;;;;;;;2.91;46.53;99866.41;1801287;78;21125;-69
2023/04/22 00:02:39;;;;;;;13.68;8.18;;;;;;;2.91;46.64;99860.36;1794646;78;21151;-69
2023/04/22 00:05:07;;;;;;;15.80;7.60;;;;;;;2.88;46.68;99857.39;1800324;78;20954;-69
2023/04/22 00:07:33;;;;;;;11.30;7.08;;;;;;;2.86;46.70;99852.71;1796077;79;21068;-72
2023/04/22 00:09:59;;;;;;;9.60;6.75;;;;;;;2.83;46.85;99848.89;1791573;79;20981;-69
2023/04/22 00:12:26;;;;;;;9.95;7.33;;;;;;;2.85;46.92;99848.84;1785691;79;21038;-70
2023/04/22 00:14:52;;;;;;;16.67;8.35;;;;;;;2.86;46.92;99850.13;1784251;79;20986;-69
2023/04/22 00:17:18;;;;;;;15.20;8.43;;;;;;;2.84;47.14;99849.30;1784869;79;20978;-69
2023/04/22 00:19:44;;;;;;;12.93;7.95;;;;;;;2.83;47.06;99848.89;1786207;79;21525;-69
2023/04/22 00:22:11;;;;;;;19.57;8.95;;;;;;;2.84;46.97;99848.45;1780794;79;21650;-69
2023/04/22 00:24:37;;;;;;;15.80;8.05;;;;;;;2.84;47.05;99846.71;1743241;81;21468;-68
2023/04/22 00:27:03;;;;;;;12.58;8.05;;;;;;;2.88;47.29;99850.09;1741967;81;21509;-69
2023/04/22 00:29:29;;;;;;;12.47;7.30;;;;;;;2.90;47.30;99838.88;1738534;81;21468;-69
2023/04/22 00:31:55;;;;;;;14.87;7.83;;;;;;;2.91;47.12;99844.89;1738848;81;21028;-69
2023/04/22 00:34:22;;;;;;;19.60;8.33;;;;;;;2.90;47.22;99835.46;1748671;80;21020;-69
2023/04/22 00:36:48;;;;;;;15.15;8.38;;;;;;;2.88;47.28;99840.63;1770900;79;21124;-68
2023/04/22 00:39:14;;;;;;;15.70;8.53;;;;;;;2.85;47.37;99838.09;1738286;81;21030;-68
2023/04/22 00:41:41;;;;;;;15.85;8.78;;;;;;;2.82;47.57;99839.87;1743323;80;21009;-69
2023/04/22 00:44:10;;;;;;;11.73;7.70;;;;;;;2.83;47.69;99837.28;1741916;81;20983;-70
2023/04/22 00:46:38;;;;;;;15.58;8.93;;;;;;;2.81;47.76;99836.44;1784762;79;20987;-71
2023/04/22 00:49:06;;;;;;;13.65;7.20;;;;;;;2.77;47.80;99836.50;1785591;79;21025;-70
2023/04/22 00:51:33;;;;;;;11.30;6.92;;;;;;;2.75;48.10;99830.53;1786037;79;21066;-72
2023/04/22 00:54:03;;;;;;;16.85;7.78;;;;;;;2.71;48.12;99825.83;1785287;79;21117;-69
2023/04/22 00:56:31;;;;;;;12.68;7.50;;;;;;;2.67;48.28;99827.60;1786141;79;21026;-69
2023/04/22 00:58:57;;;;;;;18.80;7.87;;;;;;;2.68;48.31;99834.89;1786723;79;21063;-72
2023/04/22 01:01:24;;;;;;;15.18;8.08;;;;;;;2.65;48.34;99828.49;1790489;79;21097;-69
2023/04/22 01:03:51;;;;;;;15.80;8.28;;;;;;;2.62;48.48;99832.41;1783081;79;21433;-69
2023/04/22 01:06:23;;;;;;;15.23;8.20;;;;;;;2.60;48.56;99831.56;1785937;79;20971;-69
2023/04/22 01:08:49;;;;;;;12.03;8.20;;;;;;;2.56;48.64;99833.78;1785936;79;21093;-69
2023/04/22 01:11:15;;;;;;;14.18;8.05;;;;;;;2.53;48.69;99836.40;1768629;79;21101;-72
2023/04/22 01:13:42;;;;;;;12.13;7.45;;;;;;;2.51;48.77;99835.55;1741415;81;21077;-69
2023/04/22 01:16:09;;;;;;;13.40;7.83;;;;;;;2.48;48.83;99839.47;1740621;81;21053;-69
2023/04/22 01:18:36;;;;;;;13.98;8.73;;;;;;;2.52;48.98;99838.54;1751060;81;20960;-69
2023/04/22 01:21:02;;;;;;;14.60;7.83;;;;;;;2.53;49.10;99842.84;1736534;81;21078;-69
2023/04/22 01:23:29;;;;;;;11.75;6.90;;;;;;;2.50;49.08;99839.87;1787696;79;21144;-69
2023/04/22 01:25:56;;;;;;;12.37;7.57;;;;;;;2.46;49.17;99839.47;1784567;79;21161;-69
2023/04/22 01:28:23;;;;;;;12.23;7.05;;;;;;;2.40;49.25;99837.82;1737863;81;21051;-69
2023/04/22 01:30:49;;;;;;;16.05;6.97;;;;;;;2.35;49.42;99837.05;1738096;80;21049;-69
2023/04/22 01:33:16;;;;;;;11.68;6.75;;;;;;;2.37;49.68;99837.02;1785174;79;21055;-70
2023/04/22 01:35:44;;;;;;;11.03;7.08;;;;;;;2.41;49.55;99836.97;1787103;79;21519;-72
2023/04/22 01:38:11;;;;;;;14.23;6.87;;;;;;;2.36;49.57;99842.61;1785205;79;21008;-72
2023/04/22 01:40:38;;;;;;;15.25;8.58;;;;;;;2.30;49.62;99841.40;1737884;81;21147;-71
2023/04/22 01:43:05;;;;;;;12.43;8.10;;;;;;;2.28;49.67;99837.98;1755933;81;21041;-72
2023/04/22 01:45:31;;;;;;;13.30;6.67;;;;;;;2.31;49.77;99843.09;1741090;81;20973;-69
2023/04/22 01:47:58;;;;;;;10.18;6.00;;;;;;;2.38;49.96;99844.73;1737840;81;21025;-70
2023/04/22 01:50:24;;;;;;;9.08;7.00;;;;;;;2.42;49.95;99841.24;1776863;79;21006;-70
2023/04/22 01:52:51;;;;;;;11.97;7.20;;;;;;;2.44;50.10;99839.51;1770704;79;20954;-69
2023/04/22 01:55:17;;;;;;;10.13;6.85;;;;;;;2.40;50.19;99833.95;1774060;78;21005;-72
2023/04/22 01:57:43;;;;;;;13.95;7.62;;;;;;;2.33;50.30;99832.78;1778597;79;21064;-70
2023/04/22 02:00:11;;;;;;;14.95;8.30;;;;;;;2.28;50.36;99840.55;1736599;81;21039;-69
2023/04/22 02:02:37;;;;;;;13.45;8.65;;;;;;;2.28;50.46;99839.70;1787989;79;21024;-69
2023/04/22 02:05:06;;;;;;;16.45;9.35;;;;;;;2.22;50.60;99835.48;1785787;79;21072;-69
2023/04/22 02:07:32;;;;;;;13.38;8.50;;;;;;;2.15;50.72;99844.13;1783232;79;21016;-69
2023/04/22 02:09:58;;;;;;;12.23;7.95;;;;;;;2.11;50.69;99837.32;1739216;80;21131;-69
2023/04/22 02:12:25;;;;;;;12.80;7.70;;;;;;;2.08;50.85;99839.94;1793543;78;21018;-70
2023/04/22 02:14:51;;;;;;;9.85;6.08;;;;;;;2.05;50.86;99836.11;1781498;78;21033;-70
2023/04/22 02:17:18;;;;;;;8.60;5.33;;;;;;;1.98;50.86;99836.14;1791075;78;21056;-69
2023/04/22 02:19:44;;;;;;;7.72;5.50;;;;;;;1.91;50.86;99833.23;1787851;78;21648;-70
2023/04/22 02:22:10;;;;;;;11.30;6.33;;;;;;;1.87;50.98;99831.54;1795520;78;21634;-69
2023/04/22 02:24:36;;;;;;;12.35;6.92;;;;;;;1.83;51.05;99829.88;1792616;78;21661;-69
2023/04/22 02:27:02;;;;;;;9.23;5.72;;;;;;;1.80;51.18;99822.19;1797608;78;21064;-69
2023/04/22 02:29:30;;;;;;;9.53;5.80;;;;;;;1.78;51.38;99818.77;1792775;78;21011;-70
2023/04/22 02:31:58;;;;;;;13.32;5.90;;;;;;;1.75;51.34;99829.10;1791127;78;20990;-69
2023/04/22 02:34:25;;;;;;;8.48;5.85;;;;;;;1.75;51.33;99821.38;1794594;78;20989;-72
2023/04/22 02:36:51;;;;;;;10.15;6.05;;;;;;;1.78;51.52;99821.34;1796788;78;20973;-69
2023/04/22 02:39:17;;;;;;;13.20;6.20;;;;;;;1.83;51.69;99827.31;1790302;78;21004;-70
2023/04/22 02:41:44;;;;;;;13.68;7.22;;;;;;;1.81;51.53;99813.59;1797314;78;21045;-69
2023/04/22 02:44:10;;;;;;;12.15;7.00;;;;;;;1.79;51.56;99825.61;1790535;78;21084;-72
2023/04/22 02:46:36;;;;;;;9.15;5.95;;;;;;;1.76;51.65;99821.78;1799091;78;21061;-69
2023/04/22 02:49:02;;;;;;;7.80;5.05;;;;;;;1.72;51.68;99818.84;1796759;78;21069;-69
2023/04/22 02:51:31;;;;;;;10.15;4.70;;;;;;;1.70;51.70;99824.42;1793053;78;21017;-70
2023/04/22 02:53:59;;;;;;;10.72;6.92;;;;;;;1.69;51.83;99821.44;1786757;79;21010;-70
2023/04/22 02:56:26;;;;;;;12.10;6.95;;;;;;;1.71;51.93;99824.83;1794175;78;20976;-69
2023/04/22 02:58:52;;;;;;;13.62;7.95;;;;;;;1.71;52.05;99822.26;1791016;79;21124;-71
2023/04/22 03:01:18;;;;;;;14.78;7.83;;;;;;;1.69;52.09;99821.44;1790834;78;21120;-69
2023/04/22 03:03:44;;;;;;;13.30;7.67;;;;;;;1.74;52.31;99817.11;1793267;78;21085;-69
2023/04/22 03:06:11;;;;;;;10.48;7.12;;;;;;;1.74;52.24;99820.53;1794321;78;20982;-71
2023/04/22 03:08:37;;;;;;;11.45;7.20;;;;;;;1.79;52.43;99820.47;1794185;78;21049;-70
2023/04/22 03:11:04;;;;;;;11.00;7.10;;;;;;;1.76;52.40;99819.21;1793672;78;21107;-72
2023/04/22 03:13:30;;;;;;;14.43;7.58;;;;;;;1.73;52.50;99814.09;1795201;78;22200;-69
2023/04/22 03:15:57;;;;;;;12.88;8.25;;;;;;;1.70;52.53;99823.14;1794276;78;21535;-70
2023/04/22 03:18:23;;;;;;;18.10;7.80;;;;;;;1.67;52.68;99823.17;1795151;78;21017;-69
2023/04/22 03:20:49;;;;;;;16.95;9.68;;;;;;;1.65;52.70;99812.03;1796252;78;21160;-69
2023/04/22 03:23:15;;;;;;;14.33;8.13;;;;;;;1.68;52.98;99821.00;1792885;78;21116;-69
2023/04/22 03:25:42;;;;;;;11.28;8.23;;;;;;;1.65;53.13;99822.33;1793424;78;21021;-69
2023/04/22 03:28:08;;;;;;;16.70;8.48;;;;;;;1.63;53.20;99818.94;1794120;78;21025;-71
2023/04/22 03:30:34;;;;;;;16.52;8.63;;;;;;;1.64;53.11;99815.48;1801700;78;20943;-69
2023/04/22 03:33:00;;;;;;;15.83;10.05;;;;;;;1.65;53.22;99814.60;1802506;78;20973;-69
2023/04/22 03:35:27;;;;;;;15.45;9.10;;;;;;;1.65;53.24;99815.45;1801881;78;21128;-69
2023/04/22 03:37:53;;;;;;;12.58;8.25;;;;;;;1.65;53.23;99806.88;1793528;78;21054;-68
2023/04/22 03:40:20;;;;;;;13.03;7.97;;;;;;;1.66;53.25;99809.89;1792355;78;21096;-72
2023/04/22 03:42:46;;;;;;;13.28;9.25;;;;;;;1.67;53.30;99806.44;1792510;78;21576;-72
2023/04/22 03:45:12;;;;;;;15.65;8.68;;;;;;;1.68;53.37;99804.27;1802700;78;21061;-70
2023/04/22 03:47:38;;;;;;;19.92;9.20;;;;;;;1.72;53.48;99803.39;1797377;78;21046;-71
2023/04/22 03:50:05;;;;;;;43.80;11.18;;;;;;;1.78;53.55;99805.90;1794675;78;21109;-69
2023/04/22 03:52:31;;;;;;;36.73;9.35;;;;;;;1.83;53.76;99806.71;1790842;78;20950;-69
2023/04/22 03:54:58;;;;;;;21.95;9.60;;;;;;;1.91;53.70;99798.91;1798015;78;21025;-69
2023/04/22 03:57:24;;;;;;;17.30;9.33;;;;;;;1.95;53.85;99800.57;1792431;78;21044;-69
2023/04/22 03:59:50;;;;;;;17.57;9.08;;;;;;;2.04;54.03;99802.19;1793374;78;21053;-69
2023/04/22 04:02:18;;;;;;;18.82;8.70;;;;;;;2.09;54.11;99803.84;1792028;78;21085;-69
2023/04/22 04:04:44;;;;;;;24.00;9.88;;;;;;;2.14;54.00;99798.65;1792997;78;21322;-69
2023/04/22 04:07:11;;;;;;;15.68;9.55;;;;;;;2.18;54.06;99797.72;1794093;78;21097;-68
2023/04/22 04:09:40;;;;;;;13.18;9.13;;;;;;;2.24;54.17;99802.80;1793612;78;21097;-68
2023/04/22 04:12:06;;;;;;;19.55;9.45;;;;;;;2.28;54.21;99802.34;1796667;78;21137;-69
2023/04/22 04:14:32;;;;;;;15.65;9.40;;;;;;;2.31;54.25;99805.73;1800011;78;21155;-71
2023/04/22 04:16:59;;;;;;;16.40;9.15;;;;;;;2.36;54.41;99800.09;1800381;78;21120;-70
2023/04/22 04:19:25;;;;;;;14.40;7.95;;;;;;;2.49;54.51;99797.34;1793282;78;21013;-69
2023/04/22 04:21:52;;;;;;;15.70;8.03;;;;;;;2.57;54.45;99795.52;1797193;78;21073;-70
2023/04/22 04:24:18;;;;;;;14.18;8.05;;;;;;;2.64;54.44;99795.87;1792518;78;21024;-70
2023/04/22 04:26:44;;;;;;;14.05;7.45;;;;;;;2.71;54.48;99794.89;1797541;78;21100;-69
2023/04/22 04:29:13;;;;;;;13.20;7.33;;;;;;;2.83;54.67;99792.16;1797567;78;20981;-70
2023/04/22 04:31:40;;;;;;;76.47;11.28;;;;;;;2.95;54.53;99792.84;1794935;78;20990;-70
2023/04/22 04:34:06;;;;;;;77.70;14.13;;;;;;;3.07;54.77;99794.78;1799062;78;21076;-69
2023/04/22 04:36:32;;;;;;;70.45;13.93;;;;;;;3.23;54.82;99787.66;1795049;78;21652;-71
2023/04/22 04:38:59;;;;;;;24.32;8.83;;;;;;;3.41;54.88;99793.39;1799454;78;22736;-72
2023/04/22 04:41:27;;;;;;;14.55;7.90;;;;;;;3.55;54.84;99787.55;1795651;78;22451;-69
2023/04/22 04:43:53;;;;;;;20.00;9.10;;;;;;;3.71;54.84;99795.44;1794612;78;21105;-70
2023/04/22 04:46:19;;;;;;;22.98;9.18;;;;;;;3.88;54.99;99789.11;1797736;78;21146;-70
2023/04/22 04:48:47;;;;;;;23.02;10.88;;;;;;;4.08;55.08;99788.28;1791632;78;20965;-69
2023/04/22 04:51:14;;;;;;;27.30;14.35;;;;;;;4.23;55.06;99789.28;1796267;78;21069;-69
2023/04/22 04:53:40;;;;;;;41.50;17.82;;;;;;;4.40;55.02;99790.67;1797912;78;20960;-69
2023/04/22 04:56:06;;;;;;;64.00;15.30;;;;;;;4.54;55.06;99783.47;1800171;78;21057;-70
2023/04/22 04:58:32;;;;;;;22.00;12.28;;;;;;;4.70;55.14;99784.84;1799410;78;21120;-70
2023/04/22 05:00:59;;;;;;;19.00;10.85;;;;;;;4.87;55.18;99786.16;1767556;80;21575;-70
2023/04/22 05:03:25;;;;;;;17.80;10.65;;;;;;;5.02;55.15;99782.39;1794042;78;21669;-70
2023/04/22 05:05:52;;;;;;;17.07;9.55;;;;;;;5.19;55.18;99778.11;1798061;78;21595;-70
2023/04/22 05:08:18;;;;;;;19.92;8.48;;;;;;;5.37;55.22;99785.41;1797221;78;21504;-72
2023/04/22 05:10:48;;;;;;;32.60;9.33;;;;;;;5.50;55.18;99786.80;1803050;78;21155;-71
2023/04/22 05:13:12;;;;;;;12.98;6.67;;;;;;;5.66;55.31;99777.33;1798527;78;21025;-71
2023/04/22 05:15:38;;;;;;;7.78;5.80;;;;;;;5.81;55.08;99779.53;1790578;78;21124;-71
2023/04/22 05:18:05;;;;;;;8.75;5.62;;;;;;;5.96;55.05;99770.05;1794138;78;21447;-70
2023/04/22 05:20:31;;;;;;;8.68;5.90;;;;;;;6.15;55.02;99774.73;1795558;78;20990;-72
2023/04/22 05:22:58;;;;;;;10.32;5.90;;;;;;;6.33;55.16;99771.64;1788627;78;21513;-70
2023/04/22 05:25:24;;;;;;;49.48;8.63;;;;;;;6.54;55.18;99777.08;1792687;78;20998;-69
2023/04/22 05:27:50;;;;;;;45.05;8.85;;;;;;;6.78;55.23;99775.05;1793880;78;21024;-69
2023/04/22 05:30:16;;;;;;;20.27;7.30;;;;;;;7.02;55.21;99772.11;1794848;78;20948;-70
2023/04/22 05:32:43;;;;;;;10.53;6.08;;;;;;;7.26;55.12;99776.97;1790118;78;21609;-69
2023/04/22 05:35:10;;;;;;;9.55;5.17;;;;;;;7.47;55.19;99765.45;1796613;78;21556;-70
2023/04/22 05:37:36;;;;;;;8.80;5.55;;;;;;;7.68;55.05;99759.99;1797265;78;21637;-70
2023/04/22 05:40:02;;;;;;;7.83;5.50;;;;;;;7.82;55.01;99758.59;1796346;78;21026;-71
2023/04/22 05:42:29;;;;;;;8.50;5.85;;;;;;;8.03;55.10;99758.72;1791505;78;21112;-69
2023/04/22 05:44:55;;;;;;;8.78;5.50;;;;;;;8.23;55.08;99756.27;1789981;78;21520;-69
2023/04/22 05:47:21;;;;;;;10.23;6.75;;;;;;;8.42;55.18;99755.59;1790339;79;21465;-69
2023/04/22 05:49:47;;;;;;;7.87;5.83;;;;;;;8.63;55.13;99752.17;1786666;79;21531;-72
2023/04/22 05:52:18;;;;;;;8.38;5.35;;;;;;;8.84;55.11;99750.93;1789554;78;21488;-69
2023/04/22 05:54:41;;;;;;;6.80;4.62;;;;;;;9.06;55.12;99746.55;1784924;78;20995;-68
2023/04/22 05:57:08;;;;;;;9.75;3.87;;;;;;;9.30;55.19;99752.95;1792217;78;21009;-70
2023/04/22 05:59:34;;;;;;;3.72;2.85;;;;;;;9.55;55.07;99748.44;1789162;78;21050;-70
2023/04/22 06:02:00;;;;;;;5.92;3.80;;;;;;;9.85;55.05;99741.48;1791831;79;21061;-70
2023/04/22 06:04:29;;;;;;;4.53;3.12;;;;;;;10.20;55.11;99743.00;1758622;79;21061;-68
2023/04/22 06:07:01;;;;;;;4.62;3.08;;;;;;;10.51;55.03;99745.92;1732539;81;21533;-70
2023/04/22 06:09:27;;;;;;;4.60;2.87;;;;;;;10.83;55.14;99744.84;1740751;81;22234;-69
2023/04/22 06:11:57;;;;;;;5.50;2.87;;;;;;;11.20;55.15;99746.97;1772781;79;21138;-70
2023/04/22 06:14:25;;;;;;;6.78;2.60;;;;;;;11.55;55.03;99744.38;1748266;81;21080;-70
2023/04/22 06:16:53;;;;;;;7.25;2.60;;;;;;;11.85;55.08;99737.59;1775798;79;21003;-70
2023/04/22 06:19:19;;;;;;;7.72;2.50;;;;;;;12.18;54.98;99732.80;1746799;81;21061;-72
2023/04/22 06:21:48;;;;;;;5.78;2.90;;;;;;;12.42;54.89;99736.34;1777057;79;21508;-71
2023/04/22 06:24:15;;;;;;;3.25;1.90;;;;;;;12.58;54.60;99730.64;1745544;80;21033;-72
2023/04/22 06:26:45;;;;;;;3.47;1.92;;;;;;;12.80;54.83;99728.11;1776106;79;21594;-71
2023/04/22 06:29:11;;;;;;;4.97;1.67;;;;;;;13.03;54.54;99727.67;1776324;79;20950;-71
2023/04/22 06:31:37;;;;;;;2.95;1.70;;;;;;;13.14;54.44;99727.90;1781729;79;21021;-68
2023/04/22 06:34:04;;;;;;;2.45;1.60;;;;;;;13.27;54.35;99720.18;1782749;79;21108;-72
2023/04/22 06:36:36;;;;;;;1.35;0.78;;;;;;;13.45;54.61;99726.14;1782050;80;21018;-68
2023/04/22 06:38:59;;;;;;;2.25;0.90;;;;;;;13.75;54.45;99726.55;1781330;80;20995;-72
2023/04/22 06:41:26;;;;;;;2.58;1.52;;;;;;;14.04;54.17;99721.69;1778232;79;20996;-69
2023/04/22 06:43:56;;;;;;;2.33;1.70;;;;;;;14.21;53.81;99719.80;1779414;79;21066;-71
2023/04/22 06:46:24;;;;;;;1.72;1.40;;;;;;;14.40;53.36;99720.34;1776755;79;21113;-73
2023/04/22 06:48:50;;;;;;;3.10;1.30;;;;;;;14.61;53.63;99718.15;1778189;79;21550;-71
2023/04/22 06:51:16;;;;;;;2.17;0.75;;;;;;;14.88;53.62;99712.91;1777936;80;21562;-70
2023/04/22 06:53:45;;;;;;;5.78;1.00;;;;;;;15.24;53.51;99718.01;1780625;80;21034;-71
2023/04/22 06:56:14;;;;;;;1.25;0.90;;;;;;;15.56;52.99;99711.05;1755206;79;21047;-71
2023/04/22 06:58:40;;;;;;;0.93;0.60;;;;;;;15.74;52.60;99720.36;1778812;79;21105;-74
2023/04/22 07:01:07;;;;;;;1.67;0.72;;;;;;;16.00;52.79;99715.08;1782520;80;21491;-75
2023/04/22 07:03:33;;;;;;;2.47;0.80;;;;;;;16.16;52.68;99713.05;1781234;80;20978;-74
2023/04/22 07:05:59;;;;;;;1.10;0.75;;;;;;;16.58;52.11;99706.98;1780860;79;21591;-72
2023/04/22 07:08:25;;;;;;;3.17;0.60;;;;;;;17.04;52.52;99708.91;1781062;79;21089;-71
2023/04/22 07:10:52;;;;;;;3.07;0.50;;;;;;;17.52;51.98;99704.84;1781301;79;21033;-72
2023/04/22 07:13:18;;;;;;;4.47;0.80;;;;;;;18.00;51.61;99709.95;1786790;78;21374;-68
2023/04/22 07:15:45;;;;;;;3.62;0.80;;;;;;;18.29;51.02;99702.88;1795581;78;21166;-73
2023/04/22 07:18:11;;;;;;;0.80;0.50;;;;;;;18.56;51.12;99703.77;1791271;78;21024;-72
2023/04/22 07:20:37;;;;;;;1.47;0.50;;;;;;;19.26;51.42;99701.13;1793589;78;21433;-73
2023/04/22 07:23:04;;;;;;;0.80;0.53;;;;;;;20.29;51.32;99691.84;1792794;78;21579;-75
2023/04/22 07:25:30;;;;;;;2.33;0.60;;;;;;;21.30;51.13;99689.01;1793109;79;21465;-73
2023/04/22 07:27:56;;;;;;;2.47;0.70;;;;;;;22.22;50.11;99683.03;1795683;78;21452;-74
2023/04/22 07:30:22;;;;;;;1.98;0.60;;;;;;;23.08;49.86;99686.57;1794956;78;21045;-74
2023/04/22 07:32:51;;;;;;;1.25;0.68;;;;;;;24.09;49.25;99685.59;1800197;78;21006;-73
2023/04/22 07:35:17;;;;;;;1.00;0.55;;;;;;;25.14;49.03;99681.51;1765904;78;21480;-73
2023/04/22 07:37:43;;;;;;;6.50;0.98;;;;;;;26.18;48.65;99676.28;1798639;78;21028;-74
2023/04/22 07:40:12;;;;;;;2.22;0.65;;;;;;;26.25;46.62;99673.25;1792870;78;21064;-74
2023/04/22 07:42:41;;;;;;;2.17;0.82;;;;;;;26.42;46.73;99678.84;1797132;78;21076;-74
2023/04/22 07:45:08;;;;;;;1.90;0.93;;;;;;;26.28;44.67;99674.23;1795210;78;21061;-73
2023/04/22 07:47:36;;;;;;;2.17;1.00;;;;;;;26.91;45.36;99679.88;1795437;78;21556;-73
2023/04/22 07:50:03;;;;;;;1.67;0.93;;;;;;;27.55;45.40;99680.02;1795528;78;21116;-75
2023/04/22 07:52:29;;;;;;;;;;;;;;;28.54;44.71;99669.81;1797374;78;21081;-75
2023/04/22 07:54:56;;;;;;;2.60;1.07;;;;;;;29.49;41.68;99665.89;1790472;78;20210;-75
2023/04/22 07:57:22;;;;;;;2.87;1.30;;;;;;;30.24;43.21;99668.84;1776998;79;21087;-74
2023/04/22 07:59:49;;;;;;;3.00;1.50;;;;;;;31.09;42.58;99669.23;1747247;81;21053;-74
2023/04/22 08:02:17;;;;;;;2.90;1.25;;;;;;;32.05;41.74;99668.72;1781305;79;21017;-75
2023/04/22 08:04:43;;;;;;;4.92;1.20;;;;;;;32.83;41.08;99666.34;1780758;79;21106;-75
2023/04/22 08:07:09;;;;;;;2.17;1.10;;;;;;;33.69;39.94;99663.44;1744759;81;21034;-76
2023/04/22 08:09:36;;;;;;;3.12;1.70;;;;;;;33.41;38.46;99662.02;1778450;79;20936;-75
2023/04/22 08:12:02;;;;;;;6.97;1.17;;;;;;;32.19;37.35;99637.90;1773722;79;21086;-75
2023/04/22 08:14:29;;;;;;;4.00;1.02;;;;;;;32.76;37.65;99663.14;1779998;79;21030;-74
2023/04/22 08:16:55;;;;;;;2.37;1.22;;;;;;;33.88;37.19;99661.03;1797158;78;20992;-75
2023/04/22 08:19:21;;;;;;;2.10;1.17;;;;;;;34.74;35.56;99660.46;1791469;78;21460;-75
2023/04/22 08:21:47;;;;;;;2.30;1.17;;;;;;;33.41;34.04;99648.48;1796958;78;21538;-74
2023/04/22 08:24:14;;;;;;;1.47;1.17;;;;;;;33.35;34.25;99649.38;1796604;78;21114;-74
2023/04/22 08:26:41;;;;;;;4.05;1.40;;;;;;;34.70;33.96;99649.27;1795238;78;21049;-74
2023/04/22 08:29:08;;;;;;;3.75;1.35;;;;;;;35.96;33.17;99653.53;1796435;78;21101;-75
2023/04/22 08:31:35;;;;;;;2.50;1.60;;;;;;;36.09;32.28;99646.50;1795904;78;21049;-75
2023/04/22 08:34:01;;;;;;;2.12;1.45;;;;;;;36.93;31.87;99646.67;1799797;78;20958;-75
2023/04/22 08:36:28;;;;;;;2.20;0.90;;;;;;;37.54;30.43;99645.47;1797657;78;21028;-75
2023/04/22 08:38:55;;;;;;;3.15;1.42;;;;;;;38.14;30.18;99648.41;1798379;78;21128;-75
2023/04/22 08:41:25;;;;;;;3.08;1.20;;;;;;;39.07;29.58;99644.13;1811214;78;20966;-75
2023/04/22 08:43:55;;;;;;;9.88;1.52;;;;;;;39.73;29.16;99640.45;1801299;78;21030;-75
2023/04/22 08:46:24;;;;;;;1.77;0.90;;;;;;;39.60;28.24;99642.30;1801104;78;21068;-75
2023/04/22 08:48:50;;;;;;;1.12;0.88;;;;;;;40.03;27.72;99641.70;1796550;78;21041;-75
2023/04/22 08:51:17;;;;;;;2.92;1.20;;;;;;;40.37;26.95;99634.42;1788380;78;21028;-75
2023/04/22 08:53:44;;;;;;;3.45;1.00;;;;;;;41.03;26.52;99631.70;1800799;78;21064;-74
2023/04/22 08:56:12;;;;;;;2.33;0.80;;;;;;;41.68;25.64;99631.04;1805317;78;21556;-74
2023/04/22 08:58:41;;;;;;;3.47;0.70;;;;;;;41.28;24.25;99628.68;1797585;78;21045;-74
2023/04/22 09:01:08;;;;;;;1.10;0.68;;;;;;;41.33;24.06;99631.41;1797601;78;21068;-74
2023/04/22 09:03:37;;;;;;;11.53;1.45;;;;;;;40.86;22.88;99633.36;1798121;78;20993;-74
2023/04/22 09:06:04;;;;;;;1.12;0.57;;;;;;;39.21;22.89;99630.30;1794515;78;21089;-74
2023/04/22 09:08:32;;;;;;;2.87;0.80;;;;;;;39.81;22.24;99624.12;1801130;78;21100;-74
2023/04/22 09:10:58;;;;;;;2.37;0.40;;;;;;;40.63;21.80;99620.23;1800764;78;20986;-75
2023/04/22 09:13:26;;;;;;;5.75;0.70;;;;;;;40.64;21.73;99624.09;1790967;78;21018;-75
2023/04/22 09:15:54;;;;;;;2.52;0.70;;;;;;;40.65;21.09;99626.27;1794464;78;21076;-75
2023/04/22 09:18:21;;;;;;;0.70;0.40;;;;;;;41.70;21.07;99622.00;1796765;78;21003;-74
2023/04/22 09:20:49;;;;;;;0.50;0.50;;;;;;;42.29;20.66;99622.52;1804705;78;21136;-75
2023/04/22 09:23:15;;;;;;;2.87;0.70;;;;;;;43.54;20.60;99621.98;1800052;78;21120;-73
2023/04/22 09:25:43;;;;;;;1.85;0.70;;;;;;;43.91;19.85;99612.19;1804163;78;20934;-73
2023/04/22 09:28:12;;;;;;;2.42;0.80;;;;;;;44.14;19.49;99615.45;1798084;78;21009;-73
2023/04/22 09:30:38;;;;;;;35.17;2.70;;;;;;;44.08;18.69;99609.77;1792645;78;21080;-74
2023/04/22 09:33:06;;;;;;;1.42;0.70;;;;;;;43.74;18.56;99603.88;1799290;78;21096;-73
2023/04/22 09:35:35;;;;;;;1.32;1.00;;;;;;;43.37;18.17;99609.28;1800254;78;21044;-73
2023/04/22 09:38:07;;;;;;;2.45;0.93;;;;;;;43.88;18.15;99603.16;1798532;78;21675;-72
2023/04/22 09:40:35;;;;;;;3.77;0.90;;;;;;;44.26;17.46;99599.08;1798772;78;21548;-73
2023/04/22 09:43:04;;;;;;;0.93;0.82;;;;;;;44.53;17.26;99603.31;1796340;78;21005;-72
2023/04/22 09:45:36;;;;;;;1.27;0.90;;;;;;;44.68;16.82;99605.82;1795422;78;20962;-71
2023/04/22 09:48:08;;;;;;;2.80;0.80;;;;;;;44.96;16.76;99600.41;1794824;78;21025;-72
2023/04/22 09:50:36;;;;;;;2.45;1.00;;;;;;;45.44;16.19;99595.91;1800781;78;20986;-72
2023/04/22 09:53:05;;;;;;;6.40;1.35;;;;;;;44.62;16.19;99595.18;1793815;78;21064;-71
2023/04/22 09:55:35;;;;;;;1.27;0.80;;;;;;;44.12;15.03;99592.94;1795689;78;21399;-73
2023/04/22 09:58:10;;;;;;;2.47;1.35;;;;;;;40.24;14.34;99592.00;1799573;78;20970;-73
2023/04/22 10:00:40;;;;;;;3.40;1.10;;;;;;;37.15;14.50;99593.70;1797702;78;21568;-73
2023/04/22 10:03:07;;;;;;;2.02;1.32;;;;;;;37.54;15.34;99591.00;1795632;78;21018;-73
2023/04/22 10:05:37;;;;;;;2.20;1.17;;;;;;;39.44;15.49;99587.30;1795644;78;20981;-72
2023/04/22 10:08:04;;;;;;;2.75;1.40;;;;;;;41.03;15.05;99585.70;1796902;78;21717;-73
2023/04/22 10:10:31;;;;;;;3.35;1.90;;;;;;;41.66;15.13;99581.19;1801600;78;20946;-72
2023/04/22 10:12:58;;;;;;;2.75;2.20;;;;;;;41.57;14.85;99574.92;1808263;78;21610;-73
2023/04/22 10:15:25;;;;;;;4.87;1.82;;;;;;;41.61;15.06;99577.09;1798880;78;21591;-73
2023/04/22 10:17:54;;;;;;;5.85;1.92;;;;;;;42.38;15.32;99577.48;1797707;78;21603;-73
2023/04/22 10:20:22;;;;;;;10.25;8.63;;;;;;;44.00;15.15;99576.05;1790592;78;20986;-73
2023/04/22 10:22:53;;;;;;;4.62;1.98;;;;;;;45.14;15.08;99571.16;1788367;78;21532;-72
2023/04/22 10:25:24;;;;;;;2.05;1.50;;;;;;;45.92;14.69;99575.35;1796154;78;21547;-72
2023/04/22 10:28:06;;;;;;;5.62;1.27;;;;;;;46.75;14.67;99574.45;1792391;78;20994;-72
2023/04/22 10:30:34;;;;;;;5.17;1.20;;;;;;;46.72;13.04;99568.19;1789867;78;21613;-72
2023/04/22 10:33:26;;;;;;;3.75;0.95;;;;;;;46.28;13.36;99564.27;1792962;78;20998;-72
2023/04/22 10:36:16;;;;;;;2.67;1.35;;;;;;;45.89;13.18;99564.34;1796838;78;20938;-72
2023/04/22 10:38:55;;;;;;;3.30;1.00;;;;;;;45.12;12.81;99562.34;1796555;78;20993;-72
2023/04/22 10:41:33;;;;;;;1.67;1.20;;;;;;;45.11;13.12;99544.99;1800823;78;21564;-72
2023/04/22 10:44:06;;;;;;;4.08;3.20;;;;;;;45.86;12.95;99551.17;1801899;78;21088;-72
2023/04/22 10:46:36;;;;;;;1.80;0.85;;;;;;;46.45;13.12;99545.66;1785959;78;21037;-73
2023/04/22 10:49:14;;;;;;;3.27;0.80;;;;;;;47.26;12.99;99549.56;1769004;79;21500;-72
2023/04/22 10:51:46;;;;;;;1.80;1.02;;;;;;;47.86;12.92;99547.25;1743901;80;21090;-72
2023/04/22 10:54:30;;;;;;;4.28;0.98;;;;;;;48.14;12.79;99540.80;1765170;79;21114;-72
2023/04/22 10:57:06;;;;;;;3.00;1.20;;;;;;;46.52;12.51;99539.67;1766106;79;21069;-73
2023/04/22 10:59:53;;;;;;;2.95;0.90;;;;;;;43.82;11.98;99530.91;1769165;79;20956;-72
2023/04/22 11:02:21;;;;;;;1.20;1.10;;;;;;;44.61;12.61;99528.29;1782954;78;21025;-72
2023/04/22 11:04:49;;;;;;;11.93;10.55;;;;;;;45.98;12.38;99526.63;1795215;78;21386;-73
2023/04/22 11:07:25;;;;;;;2.40;2.20;;;;;;;47.03;12.35;99530.02;1801833;78;21048;-72
2023/04/22 11:09:52;;;;;;;3.45;1.20;;;;;;;47.00;12.18;99525.97;1792421;78;20994;-73
2023/04/22 11:12:37;;;;;;;4.65;0.98;;;;;;;47.26;12.26;99531.59;1794192;78;21135;-72
2023/04/22 11:15:12;;;;;;;1.32;0.90;;;;;;;46.98;11.75;99524.66;1795744;78;21045;-72
2023/04/22 11:17:44;;;;;;;21.30;1.65;;;;;;;47.07;11.95;99522.76;1790090;78;21037;-72
2023/04/22 11:20:16;;;;;;;4.12;1.30;;;;;;;47.77;11.49;99521.52;1789516;78;21312;-72
2023/04/22 11:22:43;;;;;;;2.90;1.07;;;;;;;47.78;11.58;99521.75;1794377;78;21520;-72
2023/04/22 11:25:10;;;;;;;2.15;1.02;;;;;;;47.40;11.25;99519.59;1796714;78;20994;-73
2023/04/22 11:27:38;;;;;;;3.20;1.37;;;;;;;47.30;11.46;99513.21;1795582;78;20990;-72
2023/04/22 11:30:08;;;;;;;2.62;0.95;;;;;;;47.36;11.35;99510.30;1798444;78;20990;-72
2023/04/22 11:32:40;;;;;;;12.45;8.13;;;;;;;47.02;11.30;99506.29;1793848;78;21033;-72
2023/04/22 11:35:09;;;;;;;6.80;3.33;;;;;;;46.85;11.40;99494.05;1790884;78;20958;-72